sensor_id;sensor_type;location;lat;lon;timestamp;P1;durP1;ratioP1;P2;durP2;ratioP2
14348;SDS011;7258;50.376;8.742;2024-01-15T00:00:04;24.57;;;14.33;;
14348;SDS011;7258;50.376;8.742;2024-01-15T00:02:08;22.43;;;13.23;;
14348;SDS011;7258;50.376;8.742;2024-01-15T00:04:10;24.20;;;13.73;;
14348;SDS011;7258;50.376;8.742;2024-01-15T00:06:13;22.37;;;13.70;;
14348;SDS011;7258;50.376;8.742;2024-01-15T00:08:18;25.20;;;13.23;;
14348;SDS011;7258;50.376;8.742;2024-01-15T00:10:21;24.87;;;13.90;;
14348;SDS011;7258;50.376;8.742;2024-01-15T00:12:24;25.27;;;14.53;;
14348;SDS011;7258;50.376;8.742;2024-01-15T00:14:28;22.57;;;13.17;;
14348;SDS011;7258;50.376;8.742;2024-01-15T00:16:31;24.70;;;13.40;;
14348;SDS011;7258;50.376;8.742;2024-01-15T00:18:34;27.13;;;15.20;;
14348;SDS011;7258;50.376;8.742;2024-01-15T00:20:38;25.23;;;14.30;;
14348;SDS011;7258;50.376;8.742;2024-01-15T00:22:41;23.07;;;14.17;;
14348;SDS011;7258;50.376;8.742;2024-01-15T00:24:44;25.50;;;14.23;;
14348;SDS011;7258;50.376;8.742;2024-01-15T00:26:48;22.30;;;13.77;;
14348;SDS011;7258;50.376;8.742;2024-01-15T00:28:51;24.57;;;14.37;;
14348;SDS011;7258;50.376;8.742;2024-01-15T00:30:53;24.67;;;13.97;;
14348;SDS011;7258;50.376;8.742;2024-01-15T00:32:56;22.60;;;13.73;;
14348;SDS011;7258;50.376;8.742;2024-01-15T00:35:00;22.87;;;12.77;;
14348;SDS011;7258;50.376;8.742;2024-01-15T00:37:04;22.07;;;13.97;;
14348;SDS011;7258;50.376;8.742;2024-01-15T00:39:08;22.70;;;13.13;;
14348;SDS011;7258;50.376;8.742;2024-01-15T00:41:13;23.57;;;13.87;;
14348;SDS011;7258;50.376;8.742;2024-01-15T00:43:16;22.80;;;12.90;;
14348;SDS011;7258;50.376;8.742;2024-01-15T00:45:20;23.67;;;12.93;;
14348;SDS011;7258;50.376;8.742;2024-01-15T00:47:23;16.23;;;10.97;;
14348;SDS011;7258;50.376;8.742;2024-01-15T00:49:26;16.53;;;9.70;;
14348;SDS011;7258;50.376;8.742;2024-01-15T00:51:30;14.57;;;9.00;;
14348;SDS011;7258;50.376;8.742;2024-01-15T00:53:33;14.63;;;9.00;;
14348;SDS011;7258;50.376;8.742;2024-01-15T00:55:36;14.30;;;9.27;;
14348;SDS011;7258;50.376;8.742;2024-01-15T00:57:41;14.80;;;8.83;;
14348;SDS011;7258;50.376;8.742;2024-01-15T00:59:44;14.90;;;9.13;;
14348;SDS011;7258;50.376;8.742;2024-01-15T01:01:47;13.50;;;8.37;;
14348;SDS011;7258;50.376;8.742;2024-01-15T01:03:50;15.30;;;8.67;;
14348;SDS011;7258;50.376;8.742;2024-01-15T01:05:54;11.87;;;8.03;;
14348;SDS011;7258;50.376;8.742;2024-01-15T01:07:57;14.63;;;9.00;;
14348;SDS011;7258;50.376;8.742;2024-01-15T01:09:59;11.60;;;8.00;;
14348;SDS011;7258;50.376;8.742;2024-01-15T01:12:02;12.20;;;8.50;;
14348;SDS011;7258;50.376;8.742;2024-01-15T01:14:06;12.73;;;8.43;;
14348;SDS011;7258;50.376;8.742;2024-01-15T01:16:09;13.07;;;7.83;;
14348;SDS011;7258;50.376;8.742;2024-01-15T01:18:11;11.37;;;7.57;;
14348;SDS011;7258;50.376;8.742;2024-01-15T01:20:15;14.03;;;8.83;;
14348;SDS011;7258;50.376;8.742;2024-01-15T01:22:19;12.97;;;8.03;;
14348;SDS011;7258;50.376;8.742;2024-01-15T01:24:22;12.40;;;7.93;;
14348;SDS011;7258;50.376;8.742;2024-01-15T01:26:26;12.10;;;8.40;;
14348;SDS011;7258;50.376;8.742;2024-01-15T01:28:29;14.57;;;8.90;;
14348;SDS011;7258;50.376;8.742;2024-01-15T01:30:33;14.07;;;8.83;;
14348;SDS011;7258;50.376;8.742;2024-01-15T01:32:37;14.70;;;8.27;;
14348;SDS011;7258;50.376;8.742;2024-01-15T01:34:40;12.90;;;8.37;;
14348;SDS011;7258;50.376;8.742;2024-01-15T01:36:44;14.40;;;9.67;;
14348;SDS011;7258;50.376;8.742;2024-01-15T01:38:47;13.57;;;8.63;;
14348;SDS011;7258;50.376;8.742;2024-01-15T01:40:49;16.83;;;9.60;;
14348;SDS011;7258;50.376;8.742;2024-01-15T01:42:53;12.80;;;8.83;;
14348;SDS011;7258;50.376;8.742;2024-01-15T01:44:56;11.93;;;8.40;;
14348;SDS011;7258;50.376;8.742;2024-01-15T01:47:00;12.80;;;9.33;;
14348;SDS011;7258;50.376;8.742;2024-01-15T01:49:04;13.03;;;8.93;;
14348;SDS011;7258;50.376;8.742;2024-01-15T01:51:07;14.17;;;8.40;;
14348;SDS011;7258;50.376;8.742;2024-01-15T01:53:11;16.20;;;9.30;;
14348;SDS011;7258;50.376;8.742;2024-01-15T01:55:14;14.20;;;8.70;;
14348;SDS011;7258;50.376;8.742;2024-01-15T01:57:18;14.47;;;9.17;;
14348;SDS011;7258;50.376;8.742;2024-01-15T01:59:22;13.27;;;9.10;;
14348;SDS011;7258;50.376;8.742;2024-01-15T02:01:25;15.50;;;9.07;;
14348;SDS011;7258;50.376;8.742;2024-01-15T02:03:31;15.57;;;9.50;;
14348;SDS011;7258;50.376;8.742;2024-01-15T02:05:34;14.87;;;9.13;;
14348;SDS011;7258;50.376;8.742;2024-01-15T02:07:38;13.63;;;9.13;;
14348;SDS011;7258;50.376;8.742;2024-01-15T02:09:41;14.03;;;8.87;;
14348;SDS011;7258;50.376;8.742;2024-01-15T02:11:45;13.93;;;9.63;;
14348;SDS011;7258;50.376;8.742;2024-01-15T02:13:49;13.90;;;9.27;;
14348;SDS011;7258;50.376;8.742;2024-01-15T02:15:52;16.93;;;9.00;;
14348;SDS011;7258;50.376;8.742;2024-01-15T02:17:59;17.60;;;9.17;;
14348;SDS011;7258;50.376;8.742;2024-01-15T02:20:03;16.10;;;9.50;;
14348;SDS011;7258;50.376;8.742;2024-01-15T02:22:06;14.80;;;8.73;;
14348;SDS011;7258;50.376;8.742;2024-01-15T02:24:11;16.77;;;9.77;;
14348;SDS011;7258;50.376;8.742;2024-01-15T02:26:14;14.97;;;9.07;;
14348;SDS011;7258;50.376;8.742;2024-01-15T02:28:18;17.10;;;10.23;;
14348;SDS011;7258;50.376;8.742;2024-01-15T02:30:21;15.00;;;9.00;;
14348;SDS011;7258;50.376;8.742;2024-01-15T02:32:25;16.63;;;8.57;;
14348;SDS011;7258;50.376;8.742;2024-01-15T02:34:31;14.13;;;8.90;;
14348;SDS011;7258;50.376;8.742;2024-01-15T02:36:34;15.67;;;9.20;;
14348;SDS011;7258;50.376;8.742;2024-01-15T02:38:37;13.53;;;8.50;;
14348;SDS011;7258;50.376;8.742;2024-01-15T02:40:41;17.27;;;9.97;;
14348;SDS011;7258;50.376;8.742;2024-01-15T02:42:44;15.17;;;9.13;;
14348;SDS011;7258;50.376;8.742;2024-01-15T02:44:46;15.73;;;9.33;;
14348;SDS011;7258;50.376;8.742;2024-01-15T02:46:50;15.67;;;8.97;;
14348;SDS011;7258;50.376;8.742;2024-01-15T02:48:53;17.50;;;9.13;;
14348;SDS011;7258;50.376;8.742;2024-01-15T02:50:57;13.73;;;8.93;;
14348;SDS011;7258;50.376;8.742;2024-01-15T02:53:00;15.07;;;9.37;;
14348;SDS011;7258;50.376;8.742;2024-01-15T02:55:03;13.97;;;9.67;;
14348;SDS011;7258;50.376;8.742;2024-01-15T02:57:08;16.10;;;9.53;;
14348;SDS011;7258;50.376;8.742;2024-01-15T02:59:11;13.40;;;8.43;;
14348;SDS011;7258;50.376;8.742;2024-01-15T03:01:14;15.33;;;9.03;;
14348;SDS011;7258;50.376;8.742;2024-01-15T03:03:18;14.27;;;9.33;;
14348;SDS011;7258;50.376;8.742;2024-01-15T03:05:21;15.57;;;9.20;;
14348;SDS011;7258;50.376;8.742;2024-01-15T03:07:24;13.73;;;8.53;;
14348;SDS011;7258;50.376;8.742;2024-01-15T03:09:27;15.37;;;9.60;;
14348;SDS011;7258;50.376;8.742;2024-01-15T03:11:36;24.27;;;10.03;;
14348;SDS011;7258;50.376;8.742;2024-01-15T03:13:41;14.50;;;8.90;;
14348;SDS011;7258;50.376;8.742;2024-01-15T03:15:44;15.87;;;9.23;;
14348;SDS011;7258;50.376;8.742;2024-01-15T03:17:47;16.63;;;9.47;;
14348;SDS011;7258;50.376;8.742;2024-01-15T03:19:50;15.23;;;9.33;;
14348;SDS011;7258;50.376;8.742;2024-01-15T03:21:53;14.07;;;9.07;;
14348;SDS011;7258;50.376;8.742;2024-01-15T03:23:56;16.23;;;8.97;;
14348;SDS011;7258;50.376;8.742;2024-01-15T03:26:00;14.37;;;9.10;;
14348;SDS011;7258;50.376;8.742;2024-01-15T03:28:02;16.57;;;8.90;;
14348;SDS011;7258;50.376;8.742;2024-01-15T03:30:07;15.90;;;8.97;;
14348;SDS011;7258;50.376;8.742;2024-01-15T03:32:11;15.17;;;8.57;;
14348;SDS011;7258;50.376;8.742;2024-01-15T03:34:14;15.50;;;9.17;;
14348;SDS011;7258;50.376;8.742;2024-01-15T03:36:17;13.80;;;8.83;;
14348;SDS011;7258;50.376;8.742;2024-01-15T03:38:21;14.70;;;8.30;;
14348;SDS011;7258;50.376;8.742;2024-01-15T03:40:24;12.23;;;8.47;;
14348;SDS011;7258;50.376;8.742;2024-01-15T03:42:27;13.03;;;8.23;;
14348;SDS011;7258;50.376;8.742;2024-01-15T03:44:30;16.87;;;9.63;;
14348;SDS011;7258;50.376;8.742;2024-01-15T03:46:35;14.73;;;8.73;;
14348;SDS011;7258;50.376;8.742;2024-01-15T03:48:38;13.03;;;8.30;;
14348;SDS011;7258;50.376;8.742;2024-01-15T03:50:41;20.60;;;9.50;;
14348;SDS011;7258;50.376;8.742;2024-01-15T03:52:44;14.83;;;8.43;;
14348;SDS011;7258;50.376;8.742;2024-01-15T03:54:47;15.07;;;9.10;;
14348;SDS011;7258;50.376;8.742;2024-01-15T03:56:51;14.67;;;8.83;;
14348;SDS011;7258;50.376;8.742;2024-01-15T03:58:54;15.10;;;9.23;;
14348;SDS011;7258;50.376;8.742;2024-01-15T04:00:56;14.33;;;8.90;;
14348;SDS011;7258;50.376;8.742;2024-01-15T04:03:01;14.93;;;9.50;;
14348;SDS011;7258;50.376;8.742;2024-01-15T04:05:04;16.43;;;9.20;;
14348;SDS011;7258;50.376;8.742;2024-01-15T04:07:08;15.77;;;9.37;;
14348;SDS011;7258;50.376;8.742;2024-01-15T04:09:11;16.90;;;9.70;;
14348;SDS011;7258;50.376;8.742;2024-01-15T04:11:15;16.80;;;9.67;;
14348;SDS011;7258;50.376;8.742;2024-01-15T04:13:18;15.27;;;8.77;;
14348;SDS011;7258;50.376;8.742;2024-01-15T04:15:21;15.57;;;9.73;;
14348;SDS011;7258;50.376;8.742;2024-01-15T04:17:25;15.23;;;9.37;;
14348;SDS011;7258;50.376;8.742;2024-01-15T04:19:29;14.77;;;9.37;;
14348;SDS011;7258;50.376;8.742;2024-01-15T04:21:32;16.13;;;8.97;;
14348;SDS011;7258;50.376;8.742;2024-01-15T04:23:36;15.17;;;9.50;;
14348;SDS011;7258;50.376;8.742;2024-01-15T04:25:39;15.57;;;9.80;;
14348;SDS011;7258;50.376;8.742;2024-01-15T04:27:43;14.77;;;8.37;;
14348;SDS011;7258;50.376;8.742;2024-01-15T04:29:47;17.00;;;9.47;;
14348;SDS011;7258;50.376;8.742;2024-01-15T04:31:50;14.33;;;8.80;;
14348;SDS011;7258;50.376;8.742;2024-01-15T04:33:55;17.57;;;9.67;;
14348;SDS011;7258;50.376;8.742;2024-01-15T04:36:02;15.83;;;9.13;;
14348;SDS011;7258;50.376;8.742;2024-01-15T04:38:06;16.50;;;9.23;;
14348;SDS011;7258;50.376;8.742;2024-01-15T04:40:09;13.27;;;8.90;;
14348;SDS011;7258;50.376;8.742;2024-01-15T04:42:12;15.80;;;9.33;;
14348;SDS011;7258;50.376;8.742;2024-01-15T04:44:15;16.87;;;9.70;;
14348;SDS011;7258;50.376;8.742;2024-01-15T04:46:18;14.53;;;9.20;;
14348;SDS011;7258;50.376;8.742;2024-01-15T04:48:21;16.17;;;9.60;;
14348;SDS011;7258;50.376;8.742;2024-01-15T04:50:25;17.70;;;9.47;;
14348;SDS011;7258;50.376;8.742;2024-01-15T04:52:29;15.70;;;9.23;;
14348;SDS011;7258;50.376;8.742;2024-01-15T04:54:32;15.17;;;9.20;;
14348;SDS011;7258;50.376;8.742;2024-01-15T04:56:36;15.50;;;9.80;;
14348;SDS011;7258;50.376;8.742;2024-01-15T04:58:39;15.67;;;9.17;;
14348;SDS011;7258;50.376;8.742;2024-01-15T05:00:42;19.37;;;9.80;;
14348;SDS011;7258;50.376;8.742;2024-01-15T05:02:45;18.43;;;10.97;;
14348;SDS011;7258;50.376;8.742;2024-01-15T05:04:48;16.63;;;9.43;;
14348;SDS011;7258;50.376;8.742;2024-01-15T05:06:52;16.10;;;9.23;;
14348;SDS011;7258;50.376;8.742;2024-01-15T05:08:57;17.77;;;9.83;;
14348;SDS011;7258;50.376;8.742;2024-01-15T05:11:00;15.17;;;8.47;;
14348;SDS011;7258;50.376;8.742;2024-01-15T05:13:03;16.63;;;9.37;;
14348;SDS011;7258;50.376;8.742;2024-01-15T05:15:06;17.50;;;9.73;;
14348;SDS011;7258;50.376;8.742;2024-01-15T05:17:10;17.93;;;10.13;;
14348;SDS011;7258;50.376;8.742;2024-01-15T05:19:13;16.10;;;9.67;;
14348;SDS011;7258;50.376;8.742;2024-01-15T05:21:17;16.00;;;9.40;;
14348;SDS011;7258;50.376;8.742;2024-01-15T05:23:20;16.70;;;10.83;;
14348;SDS011;7258;50.376;8.742;2024-01-15T05:25:24;18.27;;;9.93;;
14348;SDS011;7258;50.376;8.742;2024-01-15T05:27:28;15.97;;;9.90;;
14348;SDS011;7258;50.376;8.742;2024-01-15T05:29:31;16.00;;;9.80;;
14348;SDS011;7258;50.376;8.742;2024-01-15T05:31:35;17.30;;;10.07;;
14348;SDS011;7258;50.376;8.742;2024-01-15T05:33:38;18.33;;;9.27;;
14348;SDS011;7258;50.376;8.742;2024-01-15T05:35:42;15.70;;;9.67;;
14348;SDS011;7258;50.376;8.742;2024-01-15T05:37:45;16.80;;;9.80;;
14348;SDS011;7258;50.376;8.742;2024-01-15T05:39:49;15.67;;;9.40;;
14348;SDS011;7258;50.376;8.742;2024-01-15T05:41:52;16.87;;;10.13;;
14348;SDS011;7258;50.376;8.742;2024-01-15T05:43:56;18.27;;;9.73;;
14348;SDS011;7258;50.376;8.742;2024-01-15T05:45:58;18.63;;;9.87;;
14348;SDS011;7258;50.376;8.742;2024-01-15T05:48:01;17.50;;;9.50;;
14348;SDS011;7258;50.376;8.742;2024-01-15T05:50:05;14.37;;;9.47;;
14348;SDS011;7258;50.376;8.742;2024-01-15T05:52:09;16.53;;;9.97;;
14348;SDS011;7258;50.376;8.742;2024-01-15T05:54:12;16.70;;;9.60;;
14348;SDS011;7258;50.376;8.742;2024-01-15T05:56:15;17.70;;;10.30;;
14348;SDS011;7258;50.376;8.742;2024-01-15T05:58:20;15.83;;;9.17;;
14348;SDS011;7258;50.376;8.742;2024-01-15T06:00:23;15.47;;;9.43;;
14348;SDS011;7258;50.376;8.742;2024-01-15T06:02:26;17.03;;;10.17;;
14348;SDS011;7258;50.376;8.742;2024-01-15T06:04:29;14.60;;;9.07;;
14348;SDS011;7258;50.376;8.742;2024-01-15T06:06:33;14.97;;;10.00;;
14348;SDS011;7258;50.376;8.742;2024-01-15T06:08:37;25.70;;;19.00;;
14348;SDS011;7258;50.376;8.742;2024-01-15T06:10:40;17.97;;;10.33;;
14348;SDS011;7258;50.376;8.742;2024-01-15T06:12:43;15.23;;;9.50;;
14348;SDS011;7258;50.376;8.742;2024-01-15T06:14:48;16.10;;;10.10;;
14348;SDS011;7258;50.376;8.742;2024-01-15T06:16:51;18.10;;;10.77;;
14348;SDS011;7258;50.376;8.742;2024-01-15T06:18:55;18.17;;;12.43;;
14348;SDS011;7258;50.376;8.742;2024-01-15T06:20:58;18.53;;;10.27;;
14348;SDS011;7258;50.376;8.742;2024-01-15T06:23:01;16.17;;;10.00;;
14348;SDS011;7258;50.376;8.742;2024-01-15T06:25:05;19.00;;;10.70;;
14348;SDS011;7258;50.376;8.742;2024-01-15T06:27:08;17.40;;;9.60;;
14348;SDS011;7258;50.376;8.742;2024-01-15T06:29:11;18.20;;;10.37;;
14348;SDS011;7258;50.376;8.742;2024-01-15T06:31:15;18.03;;;10.10;;
14348;SDS011;7258;50.376;8.742;2024-01-15T06:33:18;18.43;;;10.50;;
14348;SDS011;7258;50.376;8.742;2024-01-15T06:35:21;16.03;;;9.93;;
14348;SDS011;7258;50.376;8.742;2024-01-15T06:37:26;20.37;;;10.53;;
14348;SDS011;7258;50.376;8.742;2024-01-15T06:39:29;17.83;;;10.40;;
14348;SDS011;7258;50.376;8.742;2024-01-15T06:41:32;20.27;;;10.83;;
14348;SDS011;7258;50.376;8.742;2024-01-15T06:43:34;20.47;;;11.13;;
14348;SDS011;7258;50.376;8.742;2024-01-15T06:45:38;19.00;;;11.43;;
14348;SDS011;7258;50.376;8.742;2024-01-15T06:47:41;16.87;;;9.80;;
14348;SDS011;7258;50.376;8.742;2024-01-15T06:49:44;18.83;;;9.97;;
14348;SDS011;7258;50.376;8.742;2024-01-15T06:51:48;21.07;;;11.37;;
14348;SDS011;7258;50.376;8.742;2024-01-15T06:53:51;19.83;;;10.10;;
14348;SDS011;7258;50.376;8.742;2024-01-15T06:55:54;19.37;;;11.40;;
14348;SDS011;7258;50.376;8.742;2024-01-15T06:57:57;17.30;;;10.13;;
14348;SDS011;7258;50.376;8.742;2024-01-15T07:00:00;15.43;;;9.70;;
14348;SDS011;7258;50.376;8.742;2024-01-15T07:02:09;18.67;;;10.73;;
14348;SDS011;7258;50.376;8.742;2024-01-15T07:04:14;19.77;;;10.50;;
14348;SDS011;7258;50.376;8.742;2024-01-15T07:06:17;15.57;;;8.97;;
14348;SDS011;7258;50.376;8.742;2024-01-15T07:08:20;20.67;;;13.98;;
14348;SDS011;7258;50.376;8.742;2024-01-15T07:10:23;15.53;;;10.57;;
14348;SDS011;7258;50.376;8.742;2024-01-15T07:12:27;19.37;;;10.57;;
14348;SDS011;7258;50.376;8.742;2024-01-15T07:14:30;17.23;;;9.33;;
14348;SDS011;7258;50.376;8.742;2024-01-15T07:16:33;17.27;;;9.73;;
14348;SDS011;7258;50.376;8.742;2024-01-15T07:18:39;15.07;;;9.70;;
14348;SDS011;7258;50.376;8.742;2024-01-15T07:20:43;17.83;;;9.23;;
14348;SDS011;7258;50.376;8.742;2024-01-15T07:22:46;16.13;;;10.83;;
14348;SDS011;7258;50.376;8.742;2024-01-15T07:24:50;13.20;;;9.00;;
14348;SDS011;7258;50.376;8.742;2024-01-15T07:26:53;14.57;;;8.97;;
14348;SDS011;7258;50.376;8.742;2024-01-15T07:28:57;15.87;;;8.40;;
14348;SDS011;7258;50.376;8.742;2024-01-15T07:31:00;15.53;;;9.30;;
14348;SDS011;7258;50.376;8.742;2024-01-15T07:33:05;15.57;;;9.80;;
14348;SDS011;7258;50.376;8.742;2024-01-15T07:35:08;14.33;;;9.03;;
14348;SDS011;7258;50.376;8.742;2024-01-15T07:37:13;14.77;;;9.27;;
14348;SDS011;7258;50.376;8.742;2024-01-15T07:39:16;16.80;;;9.70;;
14348;SDS011;7258;50.376;8.742;2024-01-15T07:41:20;15.70;;;9.67;;
14348;SDS011;7258;50.376;8.742;2024-01-15T07:43:23;15.67;;;9.97;;
14348;SDS011;7258;50.376;8.742;2024-01-15T07:45:26;16.23;;;9.40;;
14348;SDS011;7258;50.376;8.742;2024-01-15T07:47:29;15.03;;;9.00;;
14348;SDS011;7258;50.376;8.742;2024-01-15T07:49:33;17.13;;;9.80;;
14348;SDS011;7258;50.376;8.742;2024-01-15T07:51:37;15.40;;;9.63;;
14348;SDS011;7258;50.376;8.742;2024-01-15T07:53:43;15.90;;;9.27;;
14348;SDS011;7258;50.376;8.742;2024-01-15T07:55:46;13.87;;;9.17;;
14348;SDS011;7258;50.376;8.742;2024-01-15T07:57:49;20.40;;;11.20;;
14348;SDS011;7258;50.376;8.742;2024-01-15T08:00:03;19.70;;;11.47;;
14348;SDS011;7258;50.376;8.742;2024-01-15T08:02:07;20.80;;;12.23;;
14348;SDS011;7258;50.376;8.742;2024-01-15T08:04:11;21.33;;;12.57;;
14348;SDS011;7258;50.376;8.742;2024-01-15T08:06:14;25.17;;;14.23;;
14348;SDS011;7258;50.376;8.742;2024-01-15T08:08:18;22.03;;;12.33;;
14348;SDS011;7258;50.376;8.742;2024-01-15T08:10:23;27.60;;;14.30;;
14348;SDS011;7258;50.376;8.742;2024-01-15T08:12:27;27.87;;;15.13;;
14348;SDS011;7258;50.376;8.742;2024-01-15T08:14:29;26.57;;;14.90;;
14348;SDS011;7258;50.376;8.742;2024-01-15T08:16:32;27.30;;;14.63;;
14348;SDS011;7258;50.376;8.742;2024-01-15T08:18:35;24.17;;;14.53;;
14348;SDS011;7258;50.376;8.742;2024-01-15T08:20:39;25.53;;;15.03;;
14348;SDS011;7258;50.376;8.742;2024-01-15T08:22:42;26.93;;;14.67;;
14348;SDS011;7258;50.376;8.742;2024-01-15T08:24:45;29.13;;;15.33;;
14348;SDS011;7258;50.376;8.742;2024-01-15T08:26:50;29.50;;;16.03;;
14348;SDS011;7258;50.376;8.742;2024-01-15T08:28:53;28.43;;;15.40;;
14348;SDS011;7258;50.376;8.742;2024-01-15T08:30:56;25.97;;;14.87;;
14348;SDS011;7258;50.376;8.742;2024-01-15T08:32:59;27.90;;;14.90;;
14348;SDS011;7258;50.376;8.742;2024-01-15T08:35:11;26.47;;;15.40;;
14348;SDS011;7258;50.376;8.742;2024-01-15T08:37:15;29.37;;;16.13;;
14348;SDS011;7258;50.376;8.742;2024-01-15T08:39:18;28.10;;;15.60;;
14348;SDS011;7258;50.376;8.742;2024-01-15T08:41:21;29.10;;;15.70;;
14348;SDS011;7258;50.376;8.742;2024-01-15T08:43:26;28.37;;;14.63;;
14348;SDS011;7258;50.376;8.742;2024-01-15T08:45:29;29.13;;;15.47;;
14348;SDS011;7258;50.376;8.742;2024-01-15T08:47:33;27.03;;;15.57;;
14348;SDS011;7258;50.376;8.742;2024-01-15T08:49:36;30.00;;;16.03;;
14348;SDS011;7258;50.376;8.742;2024-01-15T08:51:41;30.37;;;15.33;;
14348;SDS011;7258;50.376;8.742;2024-01-15T08:53:45;31.33;;;14.87;;
14348;SDS011;7258;50.376;8.742;2024-01-15T08:55:47;28.27;;;15.17;;
14348;SDS011;7258;50.376;8.742;2024-01-15T08:57:50;29.10;;;15.93;;
14348;SDS011;7258;50.376;8.742;2024-01-15T08:59:55;25.63;;;15.13;;
14348;SDS011;7258;50.376;8.742;2024-01-15T09:01:59;30.57;;;15.77;;
14348;SDS011;7258;50.376;8.742;2024-01-15T09:04:03;27.47;;;15.93;;
14348;SDS011;7258;50.376;8.742;2024-01-15T09:06:05;33.63;;;17.87;;
14348;SDS011;7258;50.376;8.742;2024-01-15T09:08:08;27.90;;;16.07;;
14348;SDS011;7258;50.376;8.742;2024-01-15T09:10:12;26.43;;;14.73;;
14348;SDS011;7258;50.376;8.742;2024-01-15T09:12:15;27.53;;;15.43;;
14348;SDS011;7258;50.376;8.742;2024-01-15T09:14:19;26.27;;;15.33;;
14348;SDS011;7258;50.376;8.742;2024-01-15T09:16:38;29.47;;;15.53;;
14348;SDS011;7258;50.376;8.742;2024-01-15T09:18:42;24.93;;;14.17;;
14348;SDS011;7258;50.376;8.742;2024-01-15T09:20:45;27.57;;;15.60;;
14348;SDS011;7258;50.376;8.742;2024-01-15T09:22:48;30.27;;;15.57;;
14348;SDS011;7258;50.376;8.742;2024-01-15T09:24:51;25.23;;;15.43;;
14348;SDS011;7258;50.376;8.742;2024-01-15T09:26:55;26.70;;;14.67;;
14348;SDS011;7258;50.376;8.742;2024-01-15T09:28:58;26.70;;;14.57;;
14348;SDS011;7258;50.376;8.742;2024-01-15T09:31:02;26.23;;;14.63;;
14348;SDS011;7258;50.376;8.742;2024-01-15T09:33:07;26.40;;;15.80;;
14348;SDS011;7258;50.376;8.742;2024-01-15T09:35:09;29.07;;;16.17;;
14348;SDS011;7258;50.376;8.742;2024-01-15T09:37:13;26.63;;;15.13;;
14348;SDS011;7258;50.376;8.742;2024-01-15T09:39:36;22.13;;;13.80;;
14348;SDS011;7258;50.376;8.742;2024-01-15T09:41:39;26.50;;;14.77;;
14348;SDS011;7258;50.376;8.742;2024-01-15T09:43:42;21.57;;;13.40;;
14348;SDS011;7258;50.376;8.742;2024-01-15T09:45:45;23.67;;;14.23;;
14348;SDS011;7258;50.376;8.742;2024-01-15T09:47:49;22.70;;;13.90;;
14348;SDS011;7258;50.376;8.742;2024-01-15T09:49:54;23.27;;;14.97;;
14348;SDS011;7258;50.376;8.742;2024-01-15T09:51:59;24.13;;;13.57;;
14348;SDS011;7258;50.376;8.742;2024-01-15T09:54:12;23.13;;;13.20;;
14348;SDS011;7258;50.376;8.742;2024-01-15T09:56:18;23.60;;;13.97;;
14348;SDS011;7258;50.376;8.742;2024-01-15T09:58:21;20.10;;;13.07;;
14348;SDS011;7258;50.376;8.742;2024-01-15T10:00:25;24.33;;;13.57;;
14348;SDS011;7258;50.376;8.742;2024-01-15T10:02:29;23.20;;;13.67;;
14348;SDS011;7258;50.376;8.742;2024-01-15T10:04:32;22.87;;;14.60;;
14348;SDS011;7258;50.376;8.742;2024-01-15T10:06:37;24.37;;;13.67;;
14348;SDS011;7258;50.376;8.742;2024-01-15T10:08:40;24.47;;;14.93;;
14348;SDS011;7258;50.376;8.742;2024-01-15T10:10:45;25.10;;;14.80;;
14348;SDS011;7258;50.376;8.742;2024-01-15T10:12:48;19.00;;;13.60;;
14348;SDS011;7258;50.376;8.742;2024-01-15T10:14:52;24.80;;;13.93;;
14348;SDS011;7258;50.376;8.742;2024-01-15T10:16:55;24.90;;;13.87;;
14348;SDS011;7258;50.376;8.742;2024-01-15T10:18:58;21.07;;;14.73;;
14348;SDS011;7258;50.376;8.742;2024-01-15T10:21:02;23.03;;;14.10;;
14348;SDS011;7258;50.376;8.742;2024-01-15T10:23:06;20.10;;;13.90;;
14348;SDS011;7258;50.376;8.742;2024-01-15T10:25:11;15.57;;;10.20;;
14348;SDS011;7258;50.376;8.742;2024-01-15T10:27:14;21.67;;;12.53;;
14348;SDS011;7258;50.376;8.742;2024-01-15T10:29:18;22.43;;;12.50;;
14348;SDS011;7258;50.376;8.742;2024-01-15T12:25:05;6.97;;;5.77;;
14348;SDS011;7258;50.376;8.742;2024-01-15T12:27:08;6.43;;;5.50;;
14348;SDS011;7258;50.376;8.742;2024-01-15T12:29:11;8.70;;;5.77;;
14348;SDS011;7258;50.376;8.742;2024-01-15T12:31:14;7.23;;;5.90;;
14348;SDS011;7258;50.376;8.742;2024-01-15T12:33:18;7.37;;;5.97;;
14348;SDS011;7258;50.376;8.742;2024-01-15T12:35:23;7.80;;;5.47;;
14348;SDS011;7258;50.376;8.742;2024-01-15T12:37:27;7.13;;;5.60;;
14348;SDS011;7258;50.376;8.742;2024-01-15T12:39:33;7.10;;;5.93;;
14348;SDS011;7258;50.376;8.742;2024-01-15T12:45:38;7.60;;;5.67;;
14348;SDS011;7258;50.376;8.742;2024-01-15T12:47:42;5.97;;;5.30;;
14348;SDS011;7258;50.376;8.742;2024-01-15T13:50:38;5.00;;;3.80;;
14348;SDS011;7258;50.376;8.742;2024-01-15T13:52:41;4.60;;;4.20;;
14348;SDS011;7258;50.376;8.742;2024-01-15T13:54:43;4.13;;;3.73;;
14348;SDS011;7258;50.376;8.742;2024-01-15T13:56:51;5.67;;;4.37;;
14348;SDS011;7258;50.376;8.742;2024-01-15T13:58:54;4.87;;;4.23;;
14348;SDS011;7258;50.376;8.742;2024-01-15T14:00:57;6.17;;;4.33;;
14348;SDS011;7258;50.376;8.742;2024-01-15T14:03:01;5.80;;;4.33;;
14348;SDS011;7258;50.376;8.742;2024-01-15T14:05:05;6.17;;;4.03;;
14348;SDS011;7258;50.376;8.742;2024-01-15T14:07:10;5.20;;;3.90;;
14348;SDS011;7258;50.376;8.742;2024-01-15T14:09:13;5.03;;;3.83;;
14348;SDS011;7258;50.376;8.742;2024-01-15T14:11:17;4.67;;;3.83;;
14348;SDS011;7258;50.376;8.742;2024-01-15T14:13:20;5.07;;;4.00;;
14348;SDS011;7258;50.376;8.742;2024-01-15T14:15:23;4.13;;;3.73;;
14348;SDS011;7258;50.376;8.742;2024-01-15T14:17:27;4.43;;;3.70;;
14348;SDS011;7258;50.376;8.742;2024-01-15T14:19:29;7.03;;;3.33;;
14348;SDS011;7258;50.376;8.742;2024-01-15T14:21:32;7.33;;;4.30;;
14348;SDS011;7258;50.376;8.742;2024-01-15T14:23:37;5.83;;;3.87;;
14348;SDS011;7258;50.376;8.742;2024-01-15T14:25:41;4.13;;;3.60;;
14348;SDS011;7258;50.376;8.742;2024-01-15T14:27:58;4.27;;;3.57;;
14348;SDS011;7258;50.376;8.742;2024-01-15T14:30:01;4.43;;;4.00;;
14348;SDS011;7258;50.376;8.742;2024-01-15T14:32:07;4.77;;;3.40;;
14348;SDS011;7258;50.376;8.742;2024-01-15T14:34:10;5.37;;;3.90;;
14348;SDS011;7258;50.376;8.742;2024-01-15T14:36:13;7.77;;;4.33;;
14348;SDS011;7258;50.376;8.742;2024-01-15T14:38:17;5.53;;;3.70;;
14348;SDS011;7258;50.376;8.742;2024-01-15T14:40:21;5.40;;;4.10;;
14348;SDS011;7258;50.376;8.742;2024-01-15T14:42:25;8.77;;;4.20;;
14348;SDS011;7258;50.376;8.742;2024-01-15T14:44:28;7.23;;;3.93;;
14348;SDS011;7258;50.376;8.742;2024-01-15T14:46:30;4.13;;;3.33;;
14348;SDS011;7258;50.376;8.742;2024-01-15T14:48:33;6.90;;;4.20;;
14348;SDS011;7258;50.376;8.742;2024-01-15T14:50:36;8.20;;;4.30;;
14348;SDS011;7258;50.376;8.742;2024-01-15T14:52:39;6.07;;;3.80;;
14348;SDS011;7258;50.376;8.742;2024-01-15T14:54:43;6.67;;;3.73;;
14348;SDS011;7258;50.376;8.742;2024-01-15T14:56:48;8.10;;;3.70;;
14348;SDS011;7258;50.376;8.742;2024-01-15T14:58:51;8.27;;;3.90;;
14348;SDS011;7258;50.376;8.742;2024-01-15T15:00:54;9.90;;;4.13;;
14348;SDS011;7258;50.376;8.742;2024-01-15T15:02:58;4.20;;;3.80;;
14348;SDS011;7258;50.376;8.742;2024-01-15T15:05:00;6.77;;;3.77;;
14348;SDS011;7258;50.376;8.742;2024-01-15T15:07:04;7.33;;;4.17;;
14348;SDS011;7258;50.376;8.742;2024-01-15T15:09:07;6.50;;;4.30;;
14348;SDS011;7258;50.376;8.742;2024-01-15T15:11:13;9.13;;;4.50;;
14348;SDS011;7258;50.376;8.742;2024-01-15T15:13:19;7.70;;;4.10;;
14348;SDS011;7258;50.376;8.742;2024-01-15T15:15:42;6.17;;;3.90;;
14348;SDS011;7258;50.376;8.742;2024-01-15T15:17:45;5.50;;;3.27;;
14348;SDS011;7258;50.376;8.742;2024-01-15T15:19:48;4.77;;;3.70;;
14348;SDS011;7258;50.376;8.742;2024-01-15T15:21:54;5.67;;;4.00;;